createdAt,value
2017-10-12T00:02:13.335Z,14.32
2017-10-12T00:04:40.875Z,14.30
2017-10-12T00:07:08.543Z,14.30
2017-10-12T00:09:36.034Z,14.31
2017-10-12T00:12:03.518Z,14.30
2017-10-12T00:14:31.048Z,14.30
2017-10-12T00:16:58.526Z,14.27
2017-10-12T00:19:26.046Z,14.26
2017-10-12T00:21:53.559Z,14.25
2017-10-12T00:24:21.085Z,14.26
2017-10-12T00:26:48.568Z,14.27
2017-10-12T00:29:16.087Z,14.28
2017-10-12T00:31:43.565Z,14.31
2017-10-12T00:34:11.302Z,14.38
2017-10-12T00:36:38.783Z,14.37
2017-10-12T00:39:06.308Z,14.37
2017-10-12T00:41:34.274Z,14.33
2017-10-12T00:44:01.756Z,14.32
2017-10-12T00:46:29.283Z,14.30
2017-10-12T00:48:56.765Z,14.27
2017-10-12T00:51:24.249Z,14.25
2017-10-12T00:53:51.789Z,14.24
2017-10-12T00:56:19.323Z,14.20
2017-10-12T00:58:46.811Z,14.20
2017-10-12T01:01:14.350Z,14.18
2017-10-12T01:03:41.837Z,14.16
2017-10-12T01:06:09.324Z,14.18
2017-10-12T01:08:36.915Z,14.17
2017-10-12T01:11:04.406Z,14.18
2017-10-12T01:13:31.927Z,14.18
2017-10-12T01:15:59.456Z,14.17
2017-10-12T01:18:26.953Z,14.15
2017-10-12T01:20:54.500Z,14.17
2017-10-12T01:23:22.029Z,14.16
2017-10-12T01:25:49.516Z,14.12
2017-10-12T01:28:17.004Z,14.01
2017-10-12T01:30:44.645Z,13.88
2017-10-12T01:33:12.138Z,13.79
2017-10-12T01:35:39.628Z,13.71
2017-10-12T01:38:07.151Z,13.63
2017-10-12T01:40:34.638Z,13.56
2017-10-12T01:43:02.231Z,13.52
2017-10-12T01:45:29.756Z,13.48
2017-10-12T01:47:57.246Z,13.43
2017-10-12T01:50:24.733Z,13.39
2017-10-12T01:52:52.248Z,13.35
2017-10-12T01:55:19.815Z,13.30
2017-10-12T01:57:47.521Z,13.29
2017-10-12T02:00:15.009Z,13.32
2017-10-12T02:02:42.613Z,13.32
2017-10-12T02:05:10.155Z,13.30
2017-10-12T02:07:37.717Z,13.28
2017-10-12T02:10:05.205Z,13.22
2017-10-12T02:12:32.731Z,13.16
2017-10-12T02:15:00.215Z,13.08
2017-10-12T02:17:27.700Z,13.04
2017-10-12T02:19:55.211Z,13.01
2017-10-12T02:22:22.700Z,12.97
2017-10-12T02:24:50.323Z,12.94
2017-10-12T02:27:17.814Z,12.94
2017-10-12T02:29:45.309Z,12.91
2017-10-12T02:32:12.897Z,12.91
2017-10-12T02:34:40.468Z,12.92
2017-10-12T02:37:07.952Z,12.92
2017-10-12T02:39:35.507Z,12.90
2017-10-12T02:42:02.985Z,12.88
2017-10-12T02:44:30.474Z,12.86
2017-10-12T02:46:57.988Z,12.86
2017-10-12T02:49:25.487Z,12.85
2017-10-12T02:51:53.029Z,12.84
2017-10-12T02:54:20.516Z,12.80
2017-10-12T02:56:48.003Z,12.78
2017-10-12T02:59:15.525Z,12.75
2017-10-12T03:01:43.021Z,12.77
2017-10-12T03:04:10.545Z,12.77
2017-10-12T03:06:38.123Z,12.78
2017-10-12T03:09:05.611Z,12.82
2017-10-12T03:11:33.132Z,12.84
2017-10-12T03:14:00.713Z,12.87
2017-10-12T03:16:28.200Z,12.87
2017-10-12T03:18:55.835Z,12.85
2017-10-12T03:21:23.316Z,12.85
2017-10-12T03:23:50.802Z,12.81
2017-10-12T03:26:18.391Z,12.76
2017-10-12T03:28:45.877Z,12.69
2017-10-12T03:31:13.617Z,12.67
2017-10-12T03:33:41.100Z,12.69
2017-10-12T03:36:08.578Z,12.76
2017-10-12T03:38:36.091Z,12.85
2017-10-12T03:41:03.647Z,12.96
2017-10-12T03:43:31.131Z,13.01
2017-10-12T03:45:58.623Z,13.05
2017-10-12T03:48:26.159Z,13.09
2017-10-12T03:50:53.645Z,13.12
2017-10-12T03:53:21.133Z,13.14
2017-10-12T03:55:48.660Z,13.19
2017-10-12T03:58:16.176Z,13.24
2017-10-12T04:00:43.664Z,13.28
2017-10-12T04:03:11.220Z,13.31
2017-10-12T04:05:38.716Z,13.36
2017-10-12T04:08:06.203Z,13.38
2017-10-12T04:10:33.720Z,13.41
2017-10-12T04:13:01.231Z,13.44
2017-10-12T04:15:28.755Z,13.45
2017-10-12T04:17:56.336Z,13.47
2017-10-12T04:20:23.866Z,13.48
2017-10-12T04:22:51.348Z,13.50
2017-10-12T04:25:18.873Z,13.53
2017-10-12T04:27:46.367Z,13.57
2017-10-12T04:30:13.904Z,13.61
2017-10-12T04:32:41.460Z,13.66
2017-10-12T04:35:08.948Z,13.67
2017-10-12T04:37:36.429Z,13.70
2017-10-12T04:40:03.972Z,13.75
2017-10-12T04:42:31.499Z,13.83
2017-10-12T04:44:58.974Z,13.89
2017-10-12T04:47:26.524Z,13.95
2017-10-12T04:49:54.068Z,14.02
2017-10-12T04:52:21.631Z,14.03
2017-10-12T04:54:49.181Z,13.93
2017-10-12T04:57:16.681Z,13.78
2017-10-12T04:59:44.168Z,13.64
2017-10-12T05:02:11.697Z,13.52
2017-10-12T05:04:39.192Z,13.40
2017-10-12T05:07:06.681Z,13.37
2017-10-12T05:09:34.210Z,13.34
2017-10-12T05:12:01.705Z,13.35
2017-10-12T05:14:29.199Z,13.36
2017-10-12T05:16:56.743Z,13.40
2017-10-12T05:19:24.292Z,13.43
2017-10-12T05:21:51.788Z,13.44
2017-10-12T05:24:19.304Z,13.46
2017-10-12T05:26:46.791Z,13.48
2017-10-12T05:29:14.339Z,13.50
2017-10-12T05:31:41.825Z,13.51
2017-10-12T05:34:09.429Z,13.53
2017-10-12T05:36:36.946Z,13.57
2017-10-12T05:39:04.443Z,13.61
2017-10-12T05:41:32.107Z,13.66
2017-10-12T05:43:59.596Z,13.74
2017-10-12T05:46:27.086Z,13.79
2017-10-12T05:48:54.629Z,13.87
2017-10-12T05:51:22.113Z,13.94
2017-10-12T05:53:49.590Z,14.01
2017-10-12T05:56:17.254Z,14.08
2017-10-12T05:58:44.749Z,14.14
2017-10-12T06:01:12.267Z,14.22
2017-10-12T06:03:39.796Z,14.26
2017-10-12T06:06:07.378Z,14.27
2017-10-12T06:08:34.864Z,14.29
2017-10-12T06:11:02.392Z,14.28
2017-10-12T06:13:29.895Z,14.26
2017-10-12T06:15:57.383Z,14.20
2017-10-12T06:18:24.910Z,14.13
2017-10-12T06:20:52.392Z,14.03
2017-10-12T06:23:19.876Z,13.98
2017-10-12T06:25:47.404Z,13.97
2017-10-12T06:28:14.906Z,14.00
2017-10-12T06:30:42.403Z,14.02
2017-10-12T06:33:09.920Z,14.06
2017-10-12T06:35:37.507Z,14.10
2017-10-12T06:38:05.044Z,14.15
2017-10-12T06:40:32.600Z,14.19
2017-10-12T06:43:00.083Z,14.26
2017-10-12T06:45:27.628Z,14.36
2017-10-12T06:47:55.111Z,14.48
2017-10-12T06:50:22.601Z,14.53
2017-10-12T06:52:50.160Z,14.54
2017-10-12T06:55:17.654Z,14.53
2017-10-12T06:57:45.152Z,14.51
2017-10-12T07:00:12.689Z,14.56
2017-10-12T07:02:40.178Z,14.59
2017-10-12T07:05:07.651Z,14.65
2017-10-12T07:07:35.183Z,14.65
2017-10-12T07:10:02.707Z,14.69
2017-10-12T07:12:30.196Z,14.74
2017-10-12T07:14:57.738Z,14.74
2017-10-12T07:17:25.231Z,14.77
2017-10-12T07:19:52.715Z,14.79
2017-10-12T07:22:20.234Z,14.80
2017-10-12T07:24:47.746Z,14.85
2017-10-12T07:27:15.306Z,14.85
2017-10-12T07:29:42.891Z,14.84
2017-10-12T07:32:10.371Z,14.76
2017-10-12T07:34:37.888Z,14.81
2017-10-12T07:37:05.375Z,14.97
2017-10-12T07:39:33.108Z,15.08
2017-10-12T07:42:00.661Z,15.25
2017-10-12T07:44:28.163Z,15.18
2017-10-12T07:46:55.681Z,15.12
2017-10-12T07:49:23.261Z,15.29
2017-10-12T07:51:50.738Z,15.52
2017-10-12T07:54:18.231Z,15.44
2017-10-12T07:56:45.926Z,15.23
2017-10-12T07:59:13.408Z,15.08
2017-10-12T08:01:40.892Z,15.24
2017-10-12T08:04:08.411Z,15.45
2017-10-12T08:06:35.948Z,15.83
2017-10-12T08:09:03.459Z,15.97
2017-10-12T08:11:30.976Z,15.88
2017-10-12T08:13:58.497Z,15.95
2017-10-12T08:16:26.017Z,16.12
2017-10-12T08:18:53.504Z,16.30
2017-10-12T08:21:21.034Z,16.36
2017-10-12T08:23:48.519Z,16.49
2017-10-12T08:26:16.020Z,16.59
2017-10-12T08:28:43.568Z,16.66
2017-10-12T08:31:11.048Z,16.72
2017-10-12T08:33:38.615Z,16.72
2017-10-12T08:36:06.159Z,16.57
2017-10-12T08:38:33.649Z,16.51
2017-10-12T08:41:01.141Z,16.50
2017-10-12T08:43:28.674Z,16.68
2017-10-12T08:45:56.183Z,16.75
2017-10-12T08:48:23.670Z,16.84
2017-10-12T08:50:51.221Z,16.82
2017-10-12T08:53:18.705Z,16.90
2017-10-12T08:55:46.217Z,16.90
2017-10-12T08:58:13.775Z,16.73
2017-10-12T09:00:41.253Z,16.60
2017-10-12T09:03:08.804Z,16.70
2017-10-12T09:05:36.286Z,16.76
2017-10-12T09:08:03.773Z,16.65
2017-10-12T09:10:31.363Z,16.70
2017-10-12T09:12:58.847Z,16.85
2017-10-12T09:15:26.332Z,16.74
2017-10-12T09:17:53.950Z,16.57
2017-10-12T09:20:21.430Z,16.30
2017-10-12T09:22:48.915Z,16.24
2017-10-12T09:25:16.440Z,16.22
2017-10-12T09:27:43.923Z,16.17
2017-10-12T09:30:11.411Z,16.16
2017-10-12T09:32:38.944Z,16.16
2017-10-12T09:35:06.471Z,16.11
2017-10-12T09:37:33.960Z,16.03
2017-10-12T09:40:01.580Z,16.07
2017-10-12T09:42:29.068Z,16.08
2017-10-12T09:44:56.604Z,16.11
2017-10-12T09:47:24.152Z,16.18
2017-10-12T09:49:51.648Z,16.17
2017-10-12T09:52:19.156Z,16.12
2017-10-12T09:54:46.692Z,15.87
2017-10-12T09:57:14.184Z,15.02
2017-10-12T09:59:41.662Z,14.44
2017-10-12T10:02:09.214Z,14.11
2017-10-12T10:04:36.723Z,13.96
2017-10-12T10:07:04.215Z,13.98
2017-10-12T10:09:31.767Z,14.01
2017-10-12T10:11:59.278Z,14.06
2017-10-12T10:14:26.780Z,14.11
2017-10-12T10:16:54.367Z,14.12
2017-10-12T10:19:21.855Z,14.16
2017-10-12T10:21:49.344Z,14.21
2017-10-12T10:24:16.873Z,14.29
2017-10-12T10:26:44.351Z,14.47
2017-10-12T10:29:11.853Z,14.58
2017-10-12T10:31:39.368Z,14.61
2017-10-12T10:34:06.863Z,14.62
2017-10-12T10:36:34.380Z,14.72
2017-10-12T10:39:01.969Z,14.80
2017-10-12T10:41:29.457Z,14.95
2017-10-12T10:43:56.947Z,14.99
2017-10-12T10:46:24.460Z,15.02
2017-10-12T10:48:51.976Z,15.15
2017-10-12T10:51:19.503Z,15.38
2017-10-12T10:53:46.992Z,15.63
2017-10-12T10:56:14.500Z,15.93
2017-10-12T10:58:42.035Z,16.06
2017-10-12T11:01:09.515Z,16.10
2017-10-12T11:03:37.068Z,16.16
2017-10-12T11:06:04.559Z,16.28
2017-10-12T11:08:32.044Z,16.28
2017-10-12T11:10:59.597Z,16.35
2017-10-12T11:13:27.083Z,16.33
2017-10-12T11:15:54.651Z,16.26
2017-10-12T11:18:22.184Z,16.16
2017-10-12T11:20:49.660Z,16.15
2017-10-12T11:23:17.156Z,16.06
2017-10-12T11:25:44.678Z,15.93
2017-10-12T11:28:12.170Z,15.85
2017-10-12T11:30:39.648Z,15.76
2017-10-12T11:33:07.196Z,15.79
2017-10-12T11:35:34.695Z,15.80
2017-10-12T11:38:02.184Z,15.80
2017-10-12T11:40:29.744Z,15.81
2017-10-12T11:42:57.220Z,15.84
2017-10-12T11:45:24.699Z,15.84
2017-10-12T11:47:52.237Z,15.92
2017-10-12T11:50:19.727Z,15.91
2017-10-12T11:52:47.214Z,16.15
2017-10-12T11:55:14.753Z,16.40
2017-10-12T11:57:42.243Z,16.73
2017-10-12T12:00:09.810Z,16.76
2017-10-12T12:02:37.443Z,16.60
2017-10-12T12:05:05.010Z,16.76
2017-10-12T12:07:32.496Z,16.92
2017-10-12T12:10:00.036Z,17.14
2017-10-12T12:12:27.531Z,17.39
2017-10-12T12:14:55.018Z,17.15
2017-10-12T12:17:22.540Z,16.92
2017-10-12T12:19:50.036Z,16.88
2017-10-12T12:22:17.574Z,16.85
2017-10-12T12:24:45.057Z,16.80
2017-10-12T12:27:12.558Z,16.79
2017-10-12T12:29:40.096Z,16.95
2017-10-12T12:32:07.580Z,17.02
2017-10-12T12:34:35.063Z,17.01
2017-10-12T12:37:02.597Z,16.83
2017-10-12T12:39:30.119Z,16.56
2017-10-12T12:41:57.603Z,16.28
2017-10-12T12:44:25.150Z,16.24
2017-10-12T12:46:52.643Z,16.18
2017-10-12T12:49:20.169Z,16.05
2017-10-12T12:51:47.739Z,15.91
2017-10-12T12:54:15.220Z,15.93
2017-10-12T12:56:42.726Z,16.08
2017-10-12T12:59:10.243Z,16.21
2017-10-12T13:01:37.777Z,16.34
2017-10-12T13:04:05.268Z,16.39
2017-10-12T13:06:32.759Z,16.20
2017-10-12T13:09:00.349Z,16.15
2017-10-12T13:11:27.847Z,16.09
2017-10-12T13:13:55.328Z,15.99
2017-10-12T13:16:22.861Z,16.07
2017-10-12T13:18:50.348Z,16.17
2017-10-12T13:21:17.831Z,16.33
2017-10-12T13:23:45.379Z,16.40
2017-10-12T13:26:12.928Z,16.37
2017-10-12T13:28:40.411Z,16.28
2017-10-12T13:31:07.942Z,16.24
2017-10-12T13:33:35.531Z,16.17
2017-10-12T13:36:03.019Z,16.31
2017-10-12T13:38:30.564Z,16.38
2017-10-12T13:40:58.052Z,16.40
2017-10-12T13:43:25.542Z,16.32
2017-10-12T13:45:53.078Z,16.42
2017-10-12T13:48:20.580Z,16.49
2017-10-12T13:50:48.078Z,16.54
2017-10-12T13:53:15.618Z,16.43
2017-10-12T13:55:43.111Z,16.59
2017-10-12T13:58:10.612Z,16.64
2017-10-12T14:00:38.136Z,16.90
2017-10-12T14:03:05.630Z,16.99
2017-10-12T14:05:33.154Z,16.85
2017-10-12T14:08:00.642Z,16.83
2017-10-12T14:10:28.169Z,16.76
2017-10-12T14:12:55.655Z,16.57
2017-10-12T14:15:23.151Z,16.35
2017-10-12T14:17:50.681Z,16.19
2017-10-12T14:20:18.172Z,16.13
2017-10-12T14:22:45.657Z,16.02
2017-10-12T14:25:13.183Z,15.95
2017-10-12T14:27:40.665Z,15.88
2017-10-12T14:30:08.166Z,15.81
2017-10-12T14:32:35.679Z,15.81
2017-10-12T14:35:03.216Z,15.78
2017-10-12T14:37:30.747Z,15.71
2017-10-12T14:39:58.234Z,15.71
2017-10-12T14:42:25.727Z,15.72
2017-10-12T14:44:53.263Z,15.73
2017-10-12T14:47:20.743Z,15.65
2017-10-12T14:49:48.230Z,15.59
2017-10-12T14:52:15.775Z,15.62
2017-10-12T14:54:43.330Z,15.56
2017-10-12T14:57:10.824Z,15.54
2017-10-12T14:59:38.367Z,15.50
2017-10-12T15:02:05.852Z,15.44
2017-10-12T15:04:33.340Z,15.37
2017-10-12T15:07:00.864Z,15.23
2017-10-12T15:09:28.415Z,15.15
2017-10-12T15:11:55.906Z,15.13
2017-10-12T15:14:23.392Z,15.12
2017-10-12T15:16:50.961Z,15.06
2017-10-12T15:19:18.519Z,14.98
2017-10-12T15:21:46.013Z,14.94
2017-10-12T15:24:13.576Z,14.83
2017-10-12T15:26:41.060Z,14.77
2017-10-12T15:29:08.552Z,14.76
2017-10-12T15:31:36.112Z,14.72
2017-10-12T15:34:03.648Z,14.68
2017-10-12T15:36:31.131Z,14.67
2017-10-12T15:38:58.626Z,14.63
2017-10-12T15:41:26.169Z,14.57
2017-10-12T15:43:53.660Z,14.55
2017-10-12T15:46:21.176Z,14.53
2017-10-12T15:48:48.705Z,14.49
2017-10-12T15:51:16.278Z,14.48
2017-10-12T15:53:43.768Z,14.45
2017-10-12T15:56:11.388Z,14.39
2017-10-12T15:58:38.956Z,14.40
2017-10-12T16:01:06.448Z,14.35
2017-10-12T16:03:33.948Z,14.28
2017-10-12T16:06:01.485Z,14.24
2017-10-12T16:08:28.989Z,14.21
2017-10-12T16:10:56.482Z,14.20
2017-10-12T16:13:24.040Z,14.12
2017-10-12T16:15:51.580Z,14.02
2017-10-12T16:18:19.069Z,13.98
2017-10-12T16:20:46.584Z,13.96
2017-10-12T16:23:14.137Z,13.94
2017-10-12T16:25:41.633Z,13.86
2017-10-12T16:28:09.270Z,13.78
2017-10-12T16:30:36.755Z,13.73
2017-10-12T16:35:31.808Z,13.65
2017-10-12T16:37:59.320Z,13.63
2017-10-12T16:40:26.817Z,13.62
2017-10-12T16:42:54.410Z,13.58
2017-10-12T16:45:21.968Z,13.55
2017-10-12T16:47:49.458Z,13.54
2017-10-12T16:50:16.989Z,13.58
2017-10-12T16:52:44.483Z,13.54
2017-10-12T16:55:11.976Z,13.51
2017-10-12T16:57:39.577Z,13.47
2017-10-12T17:00:07.066Z,13.42
2017-10-12T17:02:34.548Z,13.41
2017-10-12T17:05:02.129Z,13.40
2017-10-12T17:07:29.623Z,13.37
2017-10-12T17:09:57.119Z,13.33
2017-10-12T17:12:24.649Z,13.31
2017-10-12T17:14:52.139Z,13.29
2017-10-12T17:17:19.693Z,13.31
2017-10-12T17:19:47.202Z,13.30
2017-10-12T17:22:14.744Z,13.26
2017-10-12T17:24:42.306Z,13.19
2017-10-12T17:27:09.796Z,13.14
2017-10-12T17:29:37.284Z,13.14
2017-10-12T17:32:04.814Z,13.13
2017-10-12T17:34:32.301Z,13.07
2017-10-12T17:36:59.792Z,13.03
2017-10-12T17:39:27.324Z,13.02
2017-10-12T17:41:54.907Z,13.03
2017-10-12T17:44:22.389Z,13.03
2017-10-12T17:46:50.036Z,12.99
2017-10-12T17:49:17.527Z,12.95
2017-10-12T17:51:45.017Z,12.92
2017-10-12T17:54:41.874Z,12.86
2017-10-12T17:56:40.088Z,12.86
2017-10-12T17:59:07.625Z,12.85
2017-10-12T18:01:35.968Z,12.86
2017-10-12T18:04:03.577Z,12.85
2017-10-12T18:06:31.067Z,12.83
2017-10-12T18:08:58.592Z,12.82
2017-10-12T18:11:26.084Z,12.81
2017-10-12T18:13:53.598Z,12.80
2017-10-12T18:16:21.152Z,12.77
2017-10-12T18:18:48.642Z,12.79
2017-10-12T18:21:16.144Z,12.81
2017-10-12T18:23:43.665Z,12.82
2017-10-12T18:26:11.202Z,12.83
2017-10-12T18:28:38.744Z,12.81
2017-10-12T18:31:06.236Z,12.79
2017-10-12T18:33:33.758Z,12.80
2017-10-12T18:36:01.321Z,12.80
2017-10-12T18:38:28.858Z,12.82
2017-10-12T18:40:56.353Z,12.80
2017-10-12T18:43:23.928Z,12.76
2017-10-12T18:45:51.468Z,12.74
2017-10-12T18:48:19.011Z,12.72
2017-10-12T18:50:46.507Z,12.77
2017-10-12T18:53:14.131Z,12.78
2017-10-12T18:55:41.628Z,12.75
2017-10-12T18:58:09.116Z,12.72
2017-10-12T19:00:36.676Z,12.69
2017-10-12T19:03:04.167Z,12.70
2017-10-12T19:05:31.662Z,12.70
2017-10-12T19:07:59.194Z,12.71
2017-10-12T19:10:26.680Z,12.65
2017-10-12T19:12:54.217Z,12.60
2017-10-12T19:15:21.807Z,12.59
2017-10-12T19:17:49.289Z,12.62
2017-10-12T19:20:16.778Z,12.58
2017-10-12T19:22:44.300Z,12.54
2017-10-12T19:25:11.791Z,12.52
2017-10-12T19:27:39.283Z,12.49
2017-10-12T19:30:06.799Z,12.49
2017-10-12T19:32:34.305Z,12.48
2017-10-12T19:35:01.846Z,12.48
2017-10-12T19:37:29.332Z,12.49
2017-10-12T19:39:56.835Z,12.46
2017-10-12T19:42:24.352Z,12.44
2017-10-12T19:44:51.841Z,12.44
2017-10-12T19:47:19.360Z,12.44
2017-10-12T19:49:46.972Z,12.41
2017-10-12T19:52:14.474Z,12.38
2017-10-12T19:54:41.988Z,12.35
2017-10-12T19:57:09.511Z,12.33
2017-10-12T19:59:37.109Z,12.33
2017-10-12T20:02:04.685Z,12.35
2017-10-12T20:04:32.168Z,12.35
2017-10-12T20:06:59.676Z,12.37
2017-10-12T20:09:27.186Z,12.37
2017-10-12T20:11:54.700Z,12.32
2017-10-12T20:14:22.237Z,12.27
2017-10-12T20:16:49.756Z,12.24
2017-10-12T20:19:17.275Z,12.22
2017-10-12T20:21:44.855Z,12.19
2017-10-12T20:26:39.945Z,12.13
2017-10-12T20:29:36.212Z,12.11
2017-10-12T20:31:35.177Z,12.12
2017-10-12T20:36:31.109Z,12.14
2017-10-12T20:38:58.597Z,12.12
2017-10-12T20:41:26.120Z,12.10
2017-10-12T20:43:53.610Z,12.07
2017-10-12T20:46:21.162Z,12.07
2017-10-12T20:48:48.699Z,12.07
2017-10-12T20:51:16.282Z,12.03
2017-10-12T20:53:43.791Z,12.02
2017-10-12T20:56:11.339Z,12.05
2017-10-12T20:58:38.826Z,12.02
2017-10-12T21:01:06.400Z,11.97
2017-10-12T21:03:33.962Z,11.94
2017-10-12T21:06:01.509Z,11.92
2017-10-12T21:08:28.995Z,11.93
2017-10-12T21:10:56.549Z,11.85
2017-10-12T21:13:24.035Z,11.82
2017-10-12T21:15:51.524Z,11.81
2017-10-12T21:18:19.110Z,11.78
2017-10-12T21:20:46.609Z,11.81
2017-10-12T21:23:14.168Z,11.81
2017-10-12T21:25:41.658Z,11.77
2017-10-12T21:28:09.162Z,11.72
2017-10-12T21:30:36.687Z,11.69
2017-10-12T21:33:04.175Z,11.69
2017-10-12T21:35:31.716Z,11.67
2017-10-12T21:37:59.247Z,11.66
2017-10-12T21:40:26.736Z,11.62
2017-10-12T21:42:54.229Z,11.64
2017-10-12T21:45:21.810Z,11.63
2017-10-12T21:47:49.473Z,11.61
2017-10-12T21:50:17.133Z,11.59
2017-10-12T21:52:44.684Z,11.59
2017-10-12T21:55:12.273Z,11.62
2017-10-12T21:57:39.873Z,11.65
2017-10-12T22:00:07.437Z,11.65
2017-10-12T22:02:34.998Z,11.63
2017-10-12T22:05:02.693Z,11.61
2017-10-12T22:07:30.350Z,11.60
2017-10-12T22:09:57.910Z,11.61
2017-10-12T22:12:25.529Z,11.57
2017-10-12T22:14:53.081Z,11.53
2017-10-12T22:17:20.698Z,11.49
2017-10-12T22:19:48.289Z,11.50
2017-10-12T22:22:15.841Z,11.47
2017-10-12T22:24:43.400Z,11.51
2017-10-12T22:27:10.994Z,11.51
2017-10-12T22:29:38.547Z,11.47
2017-10-12T22:32:06.137Z,11.42
2017-10-12T22:34:33.732Z,11.44
2017-10-12T22:37:01.377Z,11.42
2017-10-12T22:39:28.999Z,11.41
2017-10-12T22:41:56.559Z,11.44
2017-10-12T22:44:24.113Z,11.38
2017-10-12T22:46:51.715Z,11.35
2017-10-12T22:49:19.270Z,11.33
2017-10-12T22:51:46.818Z,11.34
2017-10-12T22:54:14.424Z,11.31
2017-10-12T22:56:42.052Z,11.27
2017-10-12T22:59:09.613Z,11.22
2017-10-12T23:01:37.226Z,11.21
2017-10-12T23:04:04.777Z,11.20
2017-10-12T23:06:32.330Z,11.19
2017-10-12T23:08:59.949Z,11.18
2017-10-12T23:14:01.358Z,11.17
2017-10-12T23:16:28.927Z,11.12
2017-10-12T23:18:56.477Z,11.11
2017-10-12T23:21:24.097Z,11.09
2017-10-12T23:23:51.652Z,11.08
2017-10-12T23:26:19.205Z,11.07
2017-10-12T23:28:46.812Z,11.06
2017-10-12T23:31:14.362Z,11.05
2017-10-12T23:33:41.962Z,11.03
2017-10-12T23:36:09.561Z,11.04
2017-10-12T23:38:37.114Z,11.03
2017-10-12T23:41:04.668Z,10.98
2017-10-12T23:43:32.309Z,10.96
2017-10-12T23:45:59.893Z,10.95
2017-10-12T23:48:27.451Z,10.93
2017-10-12T23:50:55.164Z,10.95
2017-10-12T23:53:22.688Z,10.98
2017-10-12T23:55:50.201Z,11.02
2017-10-12T23:58:17.754Z,11.07
